Time;durP1;ratioP1;P1;durP2;ratioP2;P2;SDS_P1;SDS_P2;PMS_P1;PMS_P2;Temp;Humidity;BMP_temperature;BMP_pressure;BME280_temperature;BME280_humidity;BME280_pressure;Samples;Min_cycle;Max_cycle;Signal;HPM_P1;HPM_P2
2022/05/09 00:01:57;;;;;;;11.65;4.05;;;;;;;10.07;64.17;102662.25;6184727;23;20001;-84
2022/05/09 00:04:23;;;;;;;11.10;4.85;;;;;;;10.06;63.69;102648.13;6211433;23;20065;-83
2022/05/09 00:06:51;;;;;;;11.48;4.32;;;;;;;10.01;64.34;102652.78;6210621;23;19992;-83
2022/05/09 00:09:17;;;;;;;10.68;4.55;;;;;;;9.97;63.88;102646.72;6181189;23;20033;-83
2022/05/09 00:11:43;;;;;;;11.73;4.22;;;;;;;9.96;64.27;102644.16;6205706;23;20037;-83
2022/05/09 00:14:10;;;;;;;13.63;4.20;;;;;;;9.94;63.53;102643.34;6202605;23;20008;-83
2022/05/09 00:16:35;;;;;;;11.68;3.70;;;;;;;9.91;63.73;102640.81;6180733;23;20060;-83
2022/05/09 00:19:03;;;;;;;15.25;3.92;;;;;;;9.86;64.20;102641.06;6206919;23;19993;-83
2022/05/09 00:21:34;;;;;;;11.75;3.85;;;;;;;9.85;63.74;102635.81;6200100;23;20017;-83
2022/05/09 00:23:59;;;;;;;15.38;4.20;;;;;;;9.79;64.01;102637.81;6206656;23;20025;-83
2022/05/09 00:26:30;;;;;;;10.65;4.18;;;;;;;9.79;63.81;102637.81;6206629;23;20005;-82
2022/05/09 00:28:55;;;;;;;14.18;4.47;;;;;;;9.77;64.06;102633.50;6206537;23;20012;-81
2022/05/09 00:31:20;;;;;;;11.95;3.78;;;;;;;9.77;63.22;102631.69;6207974;23;19997;-82
2022/05/09 00:33:45;;;;;;;12.60;4.00;;;;;;;9.76;63.42;102635.28;6209618;23;20005;-83
2022/05/09 00:36:12;;;;;;;13.03;4.00;;;;;;;9.73;63.78;102630.13;6208075;23;20005;-82
2022/05/09 00:38:37;;;;;;;10.95;4.05;;;;;;;9.70;64.13;102632.03;6208160;23;20243;-82
2022/05/09 00:43:46;;;;;;;8.45;3.55;;;;;;;9.62;64.51;102630.56;6207817;23;20020;-83
2022/05/09 00:46:12;;;;;;;16.63;4.05;;;;;;;9.61;64.15;102633.31;6207238;23;19997;-83
2022/05/09 00:48:39;;;;;;;8.48;3.95;;;;;;;9.57;64.32;102635.22;6207450;23;20005;-83
2022/05/09 00:51:07;;;;;;;10.07;4.03;;;;;;;9.50;64.95;102638.22;6206044;23;20093;-82
2022/05/09 00:53:36;;;;;;;12.00;4.57;;;;;;;9.45;64.82;102630.47;6206827;23;20036;-82
2022/05/09 00:56:06;;;;;;;13.13;4.75;;;;;;;9.37;65.53;102629.94;6204892;23;20032;-82
2022/05/09 00:58:38;;;;;;;9.70;4.35;;;;;;;9.33;65.25;102639.81;6204413;23;20005;-83
2022/05/09 01:01:04;;;;;;;10.80;4.70;;;;;;;9.29;65.70;102632.03;6204558;23;20001;-82
2022/05/09 01:03:40;;;;;;;8.23;4.30;;;;;;;9.26;66.10;102633.91;6205178;23;20005;-82
2022/05/09 01:06:06;;;;;;;12.52;4.82;;;;;;;9.21;66.10;102635.03;6205415;23;20001;-82
2022/05/09 01:08:34;;;;;;;14.65;5.22;;;;;;;9.19;66.08;102628.91;6206044;23;20427;-82
2022/05/09 01:11:03;;;;;;;15.25;4.85;;;;;;;9.11;66.69;102626.59;6207980;23;20005;-83
2022/05/09 01:13:33;;;;;;;11.85;4.60;;;;;;;9.14;66.41;102622.94;6206503;23;20007;-82
2022/05/09 01:16:01;;;;;;;15.43;4.60;;;;;;;9.15;66.03;102622.03;6206694;23;20067;-82
2022/05/09 01:18:27;;;;;;;12.55;4.70;;;;;;;9.07;66.79;102611.75;6204117;23;20007;-81
2022/05/09 01:20:52;;;;;;;13.40;5.05;;;;;;;9.06;66.60;102613.53;6203493;23;20005;-82
2022/05/09 01:23:18;;;;;;;8.27;4.32;;;;;;;9.04;66.66;102611.88;6202244;23;20806;-83
2022/05/09 01:25:43;;;;;;;8.95;4.47;;;;;;;9.00;66.85;102613.78;6204423;23;20049;-83
2022/05/09 01:28:11;;;;;;;13.50;4.75;;;;;;;8.97;67.17;102618.34;6204494;23;20005;-83
2022/05/09 01:30:55;;;;;;;10.35;4.28;;;;;;;8.97;67.12;102610.41;6204298;23;20095;-83
2022/05/09 01:33:35;;;;;;;13.30;4.40;;;;;;;8.95;66.46;102615.75;6204041;23;20005;-83
2022/05/09 01:36:06;;;;;;;13.48;5.00;;;;;;;8.92;67.13;102613.25;6204245;23;20001;-83
2022/05/09 01:38:53;;;;;;;11.95;4.45;;;;;;;8.94;66.65;102608.72;6204843;23;20001;-83
2022/05/09 01:41:19;;;;;;;12.50;4.60;;;;;;;8.87;67.36;102615.22;6204678;23;20001;-83
2022/05/09 01:43:48;;;;;;;12.93;4.72;;;;;;;8.78;67.82;102607.66;6204564;23;20043;-83
2022/05/09 01:46:20;;;;;;;11.82;4.53;;;;;;;8.76;67.54;102605.06;6206094;23;20032;-83
2022/05/09 01:51:31;;;;;;;13.50;4.60;;;;;;;8.63;68.13;102610.00;6209893;23;20035;-83
2022/05/09 01:53:57;;;;;;;14.65;4.72;;;;;;;8.58;68.43;102613.75;6209142;23;19989;-83
2022/05/09 01:56:27;;;;;;;13.32;4.82;;;;;;;8.50;68.51;102604.31;6207266;23;20005;-83
2022/05/09 01:58:53;;;;;;;13.32;4.30;;;;;;;8.49;68.84;102612.31;6207758;23;20005;-83
2022/05/09 02:01:20;;;;;;;17.73;4.75;;;;;;;8.42;69.08;102605.50;6207719;23;19997;-83
2022/05/09 02:03:46;;;;;;;12.18;5.07;;;;;;;8.40;69.46;102607.38;6207748;23;20035;-83
2022/05/09 02:06:11;;;;;;;12.13;4.97;;;;;;;8.36;69.41;102614.56;6208717;23;20005;-83
2022/05/09 02:08:38;;;;;;;10.07;4.68;;;;;;;8.33;68.91;102612.88;6207896;23;20016;-83
2022/05/09 02:11:04;;;;;;;12.50;5.25;;;;;;;8.30;69.09;102607.72;6208521;23;20009;-83
2022/05/09 02:13:29;;;;;;;14.00;4.50;;;;;;;8.28;69.41;102601.63;6208653;23;20016;-84
2022/05/09 02:15:54;;;;;;;12.73;5.10;;;;;;;8.26;69.01;102611.41;6208904;23;20125;-83
2022/05/09 02:18:19;;;;;;;12.50;4.97;;;;;;;8.24;69.32;102609.72;6208756;23;20008;-83
2022/05/09 02:20:46;;;;;;;9.73;4.67;;;;;;;8.23;69.88;102608.03;6206851;23;20024;-82
2022/05/09 02:23:13;;;;;;;12.52;4.82;;;;;;;8.19;69.90;102606.41;6204750;23;20693;-82
2022/05/09 02:25:39;;;;;;;14.68;4.43;;;;;;;8.15;70.07;102606.50;6204538;23;20018;-82
2022/05/09 02:28:09;;;;;;;12.65;4.80;;;;;;;8.14;69.96;102602.16;6205730;23;20005;-82
2022/05/09 02:30:35;;;;;;;;;;;;;;;8.26;67.29;102603.47;6205593;23;20035;-83
2022/05/09 02:33:01;;;;;;;12.05;4.68;;;;;;;8.13;69.81;102600.41;6205187;23;19939;-82
2022/05/09 02:35:26;;;;;;;12.80;4.80;;;;;;;8.05;70.07;102596.34;6205016;23;20024;-83
2022/05/09 02:37:52;;;;;;;12.48;5.20;;;;;;;8.05;70.34;102596.34;6205016;23;20012;-82
2022/05/09 02:40:17;;;;;;;11.93;5.15;;;;;;;8.02;70.02;102597.31;6204912;23;20007;-83
2022/05/09 02:42:43;;;;;;;13.18;5.18;;;;;;;7.98;70.45;102587.78;6205207;23;20001;-83
2022/05/09 02:45:10;;;;;;;12.43;4.68;;;;;;;7.98;70.59;102595.72;6207477;23;20013;-84
2022/05/09 02:47:35;;;;;;;10.68;4.40;;;;;;;7.95;70.43;102596.69;6178148;23;20032;-82
2022/05/09 02:50:01;;;;;;;12.00;4.82;;;;;;;7.92;70.80;102593.28;6203558;23;20016;-83
2022/05/09 02:52:26;;;;;;;15.45;5.35;;;;;;;7.89;70.86;102599.56;6204452;23;20016;-82
2022/05/09 02:54:51;;;;;;;11.55;4.57;;;;;;;7.85;71.12;102600.59;6205919;23;20008;-83
2022/05/09 02:57:17;;;;;;;11.88;5.05;;;;;;;7.77;70.64;102597.38;6209313;23;20020;-82
2022/05/09 02:59:42;;;;;;;10.40;5.00;;;;;;;7.73;70.97;102601.06;6208107;23;20005;-82
2022/05/09 03:02:09;;;;;;;13.38;5.13;;;;;;;7.69;71.23;102599.44;6208856;23;20012;-82
2022/05/09 03:04:41;;;;;;;12.13;4.65;;;;;;;7.63;71.38;102589.94;6208239;23;20001;-82
2022/05/09 03:07:12;;;;;;;10.35;5.10;;;;;;;7.62;71.64;102596.13;6207490;23;20005;-82
2022/05/09 03:09:39;;;;;;;7.43;4.57;;;;;;;7.62;71.75;102587.34;6204171;23;20056;-83
2022/05/09 03:12:05;;;;;;;13.18;4.82;;;;;;;7.58;71.20;102595.41;6208313;23;20020;-82
2022/05/09 03:14:31;;;;;;;10.05;4.70;;;;;;;7.57;71.45;102590.16;6209424;23;20009;-83
2022/05/09 03:16:57;;;;;;;14.00;4.97;;;;;;;7.48;71.76;102587.84;6211428;23;20001;-82
2022/05/09 03:19:24;;;;;;;13.52;4.95;;;;;;;7.48;71.93;102591.34;6210049;23;20005;-82
2022/05/09 03:21:50;;;;;;;14.15;5.28;;;;;;;7.44;72.30;102589.72;6209809;23;20044;-83
2022/05/09 03:24:15;;;;;;;13.30;4.85;;;;;;;7.42;72.28;102588.91;6185887;23;20009;-82
2022/05/09 03:26:40;;;;;;;11.88;4.70;;;;;;;7.44;72.17;102583.59;6212063;23;20009;-82
2022/05/09 03:29:06;;;;;;;12.90;5.30;;;;;;;7.44;72.28;102580.94;6211485;23;20013;-82
2022/05/09 03:31:34;;;;;;;9.18;4.82;;;;;;;7.39;72.39;102583.72;6207602;23;20036;-82
2022/05/09 03:33:59;;;;;;;15.13;5.47;;;;;;;7.38;72.09;102580.25;6205106;23;20063;-82
2022/05/09 03:36:25;;;;;;;14.35;5.60;;;;;;;7.36;72.86;102575.91;6203111;23;19997;-82
2022/05/09 03:38:50;;;;;;;10.90;5.45;;;;;;;7.35;72.63;102579.50;6205051;23;20081;-83
2022/05/09 03:41:15;;;;;;;15.63;5.70;;;;;;;7.34;72.90;102577.75;6180455;23;20064;-83
2022/05/09 03:43:40;;;;;;;12.43;5.45;;;;;;;7.33;72.91;102578.69;6206749;23;20016;-83
2022/05/09 03:46:06;;;;;;;12.63;5.47;;;;;;;7.33;72.62;102573.41;6207414;23;20005;-83
2022/05/09 03:48:31;;;;;;;11.88;5.40;;;;;;;7.32;72.66;102572.50;6207566;23;20255;-83
2022/05/09 03:50:57;;;;;;;12.70;5.40;;;;;;;7.33;72.79;102576.03;6206848;23;20032;-83
2022/05/09 03:53:24;;;;;;;13.20;5.68;;;;;;;7.31;72.67;102575.22;6203986;23;20033;-83
2022/05/09 03:55:50;;;;;;;11.15;5.78;;;;;;;7.25;73.36;102576.31;6201651;23;20000;-83
2022/05/09 03:58:15;;;;;;;12.75;5.32;;;;;;;7.26;73.33;102578.03;6205448;23;20089;-83
2022/05/09 04:00:41;;;;;;;12.13;5.05;;;;;;;7.25;73.23;102576.31;6206127;23;20057;-83
2022/05/09 04:03:07;;;;;;;13.07;5.22;;;;;;;7.26;73.36;102572.75;6205795;23;20065;-83
2022/05/09 04:05:34;;;;;;;11.85;5.00;;;;;;;7.21;73.70;102572.91;6201710;23;20013;-83
2022/05/09 04:08:06;;;;;;;11.27;5.53;;;;;;;7.17;72.79;102578.34;6206359;23;20014;-83
2022/05/09 04:10:34;;;;;;;13.63;5.57;;;;;;;7.12;73.50;102581.13;6203634;23;20005;-82
2022/05/09 04:13:00;;;;;;;16.45;5.85;;;;;;;7.12;73.93;102575.84;6205138;23;20005;-83
2022/05/09 04:18:10;;;;;;;10.63;5.15;;;;;;;7.08;73.84;102573.34;6210491;23;20402;-83
2022/05/09 04:20:36;;;;;;;12.55;5.47;;;;;;;7.08;74.24;102576.88;6199408;23;20009;-83
2022/05/09 04:23:02;;;;;;;12.68;6.15;;;;;;;7.07;74.20;102569.88;6175531;23;20167;-83
2022/05/09 04:25:31;;;;;;;15.45;5.63;;;;;;;7.08;74.34;102570.72;6207133;23;20016;-82
2022/05/09 04:27:59;;;;;;;18.25;5.88;;;;;;;7.07;74.46;102569.88;6186442;23;20009;-83
2022/05/09 04:30:24;;;;;;;12.00;5.63;;;;;;;7.07;74.51;102563.72;6205757;23;20001;-83
2022/05/09 04:32:50;;;;;;;13.45;6.03;;;;;;;7.07;74.11;102561.94;6205625;23;20012;-82
2022/05/09 04:35:19;;;;;;;12.85;5.70;;;;;;;7.08;74.66;102563.69;6205475;23;20085;-82
2022/05/09 04:37:47;;;;;;;15.90;5.72;;;;;;;7.08;74.15;102561.03;6204643;23;19993;-82
2022/05/09 04:40:17;;;;;;;13.20;6.10;;;;;;;7.09;74.47;102567.16;6205461;23;20001;-83
2022/05/09 04:42:43;;;;;;;15.75;6.40;;;;;;;7.10;74.79;102560.97;6205877;23;20016;-82
2022/05/09 04:45:10;;;;;;;15.93;6.70;;;;;;;7.11;74.56;102563.56;6179341;23;19981;-82
2022/05/09 04:47:35;;;;;;;11.35;6.10;;;;;;;7.13;74.56;102561.72;6204677;23;20004;-83
2022/05/09 04:50:00;;;;;;;10.23;5.78;;;;;;;7.14;74.19;102559.94;6203384;23;20032;-83
2022/05/09 04:52:26;;;;;;;15.07;6.32;;;;;;;7.17;74.77;102562.50;6204499;23;20032;-82
2022/05/09 04:54:52;;;;;;;15.02;6.95;;;;;;;7.20;74.77;102565.03;6202233;23;20009;-82
2022/05/09 04:57:18;;;;;;;14.63;6.30;;;;;;;7.23;74.59;102559.63;6175622;23;20001;-83
2022/05/09 04:59:43;;;;;;;17.65;6.47;;;;;;;7.29;74.19;102559.41;6176077;23;20001;-83
2022/05/09 05:02:08;;;;;;;13.07;6.45;;;;;;;7.32;74.48;102556.66;6204179;23;20001;-83
2022/05/09 05:04:33;;;;;;;19.40;6.45;;;;;;;7.37;74.38;102564.44;6203289;23;20029;-83
2022/05/09 05:06:59;;;;;;;16.23;6.97;;;;;;;7.41;74.91;102544.88;6204518;23;20005;-82
2022/05/09 05:09:24;;;;;;;17.80;6.38;;;;;;;7.47;74.19;102544.66;6204548;23;20032;-82
2022/05/09 05:11:49;;;;;;;16.65;6.50;;;;;;;7.56;74.49;102554.03;6206117;23;20035;-82
2022/05/09 05:14:15;;;;;;;18.25;7.15;;;;;;;7.65;74.08;102547.56;6202470;23;20005;-82
2022/05/09 05:16:59;;;;;;;18.05;6.97;;;;;;;7.74;73.38;102549.88;6203088;23;20011;-82
2022/05/09 05:19:24;;;;;;;18.02;7.00;;;;;;;7.93;73.11;102561.50;6177516;23;20029;-83
2022/05/09 05:21:49;;;;;;;14.43;6.85;;;;;;;8.10;72.65;102554.69;6206800;23;20093;-82
2022/05/09 05:24:14;;;;;;;15.43;6.75;;;;;;;8.29;72.01;102555.69;6204155;23;20017;-82
2022/05/09 05:26:40;;;;;;;15.63;6.78;;;;;;;8.42;71.24;102548.13;6204594;23;20025;-82
2022/05/09 05:29:06;;;;;;;16.38;6.25;;;;;;;8.61;70.72;102555.34;6206248;23;20031;-82
2022/05/09 05:31:31;;;;;;;18.40;7.03;;;;;;;8.76;70.50;102559.16;6206047;23;20132;-83
2022/05/09 05:33:57;;;;;;;17.75;6.72;;;;;;;8.91;69.66;102555.88;6208626;23;20005;-83
2022/05/09 05:36:22;;;;;;;13.88;6.32;;;;;;;9.11;69.05;102552.38;6180604;23;19989;-82
2022/05/09 05:38:51;;;;;;;17.88;6.55;;;;;;;9.33;68.63;102552.31;6208633;23;20016;-82
2022/05/09 05:41:20;;;;;;;;;;;;;;;9.47;68.83;102549.03;6208995;23;20028;-82
2022/05/09 05:43:46;;;;;;;17.90;6.80;;;;;;;9.70;67.32;102548.00;6203829;23;19913;-82
2022/05/09 05:46:11;;;;;;;16.42;6.22;;;;;;;9.89;66.42;102555.09;6203039;23;20005;-82
2022/05/09 05:48:37;;;;;;;12.30;6.13;;;;;;;10.05;66.59;102556.13;6206612;23;20005;-82
2022/05/09 05:51:03;;;;;;;13.88;5.88;;;;;;;10.16;65.50;102545.00;6209420;23;20342;-82
2022/05/09 05:53:31;;;;;;;16.00;6.38;;;;;;;10.27;64.83;102549.78;6184575;23;20045;-81
2022/05/09 05:55:56;;;;;;;14.40;6.05;;;;;;;10.38;64.59;102549.31;6206331;23;19997;-81
2022/05/09 05:58:23;;;;;;;19.35;5.90;;;;;;;10.48;64.29;102548.78;6202234;23;20028;-82
2022/05/09 06:00:48;;;;;;;14.50;5.80;;;;;;;10.58;63.84;102549.19;6204475;23;20001;-83
2022/05/09 06:03:15;;;;;;;15.18;6.22;;;;;;;10.68;63.45;102545.13;6210933;23;19993;-80
2022/05/09 06:05:41;;;;;;;17.25;6.45;;;;;;;10.71;63.46;102552.97;6185303;23;19985;-83
2022/05/09 06:08:08;;;;;;;20.63;6.47;;;;;;;10.78;63.28;102552.66;6213195;23;20027;-83
2022/05/09 06:10:34;;;;;;;17.15;6.30;;;;;;;10.82;63.09;102551.56;6184315;23;20013;-82
2022/05/09 06:13:04;;;;;;;13.50;6.35;;;;;;;10.89;63.31;102548.53;6207106;23;19989;-83
2022/05/09 06:15:32;;;;;;;17.25;6.85;;;;;;;10.96;63.37;102546.41;6210311;23;20086;-81
2022/05/09 06:18:00;;;;;;;24.80;6.85;;;;;;;11.04;62.71;102544.22;6208685;23;20061;-82
2022/05/09 06:20:27;;;;;;;18.15;6.38;;;;;;;11.18;63.08;102542.66;6206479;23;20012;-80
2022/05/09 06:22:56;;;;;;;15.57;6.40;;;;;;;11.26;62.16;102546.63;6187894;23;20023;-81
2022/05/09 06:25:22;;;;;;;19.55;6.40;;;;;;;11.51;62.55;102544.47;6213866;23;19989;-82
2022/05/09 06:27:48;;;;;;;25.63;6.93;;;;;;;11.66;60.62;102549.84;6214099;23;20049;-81
2022/05/09 06:30:16;;;;;;;18.10;7.00;;;;;;;11.82;59.74;102549.88;6212795;23;20013;-82
2022/05/09 06:32:41;;;;;;;21.00;6.63;;;;;;;12.01;58.90;102546.22;6187141;23;19997;-82
2022/05/09 06:35:14;;;;;;;16.83;6.60;;;;;;;12.29;58.20;102545.53;6212625;22;20008;-83
2022/05/09 06:37:39;;;;;;;17.23;6.45;;;;;;;12.58;57.35;102545.66;6186026;23;20033;-82
2022/05/09 06:40:07;;;;;;;15.75;6.22;;;;;;;12.87;56.27;102537.75;6211538;23;20009;-82
2022/05/09 06:42:33;;;;;;;14.32;5.82;;;;;;;13.09;56.24;102540.00;6212606;23;20035;-82
2022/05/09 06:44:58;;;;;;;17.10;6.22;;;;;;;13.31;54.43;102536.91;6212190;23;19997;-82
2022/05/09 06:47:23;;;;;;;21.88;6.35;;;;;;;13.54;54.00;102527.50;6212240;23;20055;-83
2022/05/09 06:49:48;;;;;;;16.45;6.45;;;;;;;13.81;53.08;102524.91;6187081;23;20001;-83
2022/05/09 06:52:14;;;;;;;16.15;6.22;;;;;;;14.02;52.85;102524.47;6212555;23;20012;-83
2022/05/09 06:54:39;;;;;;;15.77;6.00;;;;;;;14.33;52.23;102526.00;6212660;23;20028;-81
2022/05/09 06:57:05;;;;;;;14.10;6.45;;;;;;;14.59;51.70;102529.69;6211293;23;20031;-82
2022/05/09 06:59:31;;;;;;;14.40;6.22;;;;;;;14.79;51.08;102533.69;6204590;23;20434;-82
2022/05/09 07:01:57;;;;;;;12.50;5.20;;;;;;;15.03;50.21;102526.78;6186600;23;20016;-82
2022/05/09 07:04:23;;;;;;;12.40;5.97;;;;;;;15.28;51.11;102536.63;6187706;23;20084;-81
2022/05/09 07:06:52;;;;;;;18.13;6.38;;;;;;;15.53;49.69;102525.03;6206753;23;20005;-83
2022/05/09 07:09:17;;;;;;;11.02;5.60;;;;;;;15.82;49.00;102530.16;6210600;23;20053;-82
2022/05/09 07:11:43;;;;;;;12.75;5.85;;;;;;;16.02;48.02;102528.72;6210756;23;20013;-82
2022/05/09 07:14:09;;;;;;;19.10;5.80;;;;;;;16.32;47.47;102520.25;6209696;23;20005;-82
2022/05/09 07:16:36;;;;;;;14.40;6.00;;;;;;;16.57;46.88;102511.22;6210304;23;19993;-81
2022/05/09 07:19:03;;;;;;;13.45;5.70;;;;;;;16.79;45.49;102512.28;6212065;23;20056;-84
2022/05/09 07:21:29;;;;;;;14.55;5.72;;;;;;;17.04;45.74;102513.06;6212462;23;20016;-84
2022/05/09 07:23:54;;;;;;;17.58;5.97;;;;;;;17.34;44.77;102516.06;6211844;23;20017;-82
2022/05/09 07:26:19;;;;;;;13.27;4.88;;;;;;;17.67;44.66;102517.06;6206457;23;20005;-84
2022/05/09 07:28:45;;;;;;;13.95;6.15;;;;;;;17.95;43.49;102520.19;6215055;23;20057;-82
2022/05/09 07:31:13;;;;;;;12.50;5.60;;;;;;;18.19;43.64;102525.41;6214753;23;19996;-82
2022/05/09 07:33:38;;;;;;;16.40;5.97;;;;;;;18.34;43.26;102514.38;6214623;23;19989;-83
2022/05/09 07:36:04;;;;;;;16.02;5.57;;;;;;;18.44;44.03;102520.69;6215205;23;19999;-82
2022/05/09 07:38:30;;;;;;;75.80;8.35;;;;;;;18.76;42.97;102515.28;6214942;23;20004;-83
2022/05/09 07:40:56;;;;;;;21.73;6.00;;;;;;;19.03;42.60;102512.09;6215129;23;20009;-83
2022/05/09 07:43:24;;;;;;;13.82;6.07;;;;;;;19.07;41.52;102514.50;6213509;23;20057;-80
2022/05/09 07:45:52;;;;;;;12.77;6.00;;;;;;;19.40;43.49;102516.09;6183095;23;20009;-79
2022/05/09 07:48:22;;;;;;;14.80;5.55;;;;;;;19.69;42.10;102512.69;6185873;23;20472;-79
2022/05/09 07:50:49;;;;;;;14.88;6.18;;;;;;;19.89;41.58;102514.47;6206990;23;20045;-80
2022/05/09 07:53:20;;;;;;;16.50;5.13;;;;;;;20.14;40.26;102510.41;6213872;23;19993;-81
2022/05/09 07:55:46;;;;;;;15.05;5.80;;;;;;;20.30;38.95;102508.97;6214167;23;20021;-80
2022/05/09 07:58:12;;;;;;;11.70;4.68;;;;;;;20.49;39.00;102514.41;6213405;23;19993;-81
2022/05/09 08:00:39;;;;;;;10.88;4.82;;;;;;;20.89;38.75;102509.84;6212370;23;20005;-80
2022/05/09 08:03:06;;;;;;;9.70;5.18;;;;;;;21.09;38.22;102507.97;6187609;23;20025;-79
2022/05/09 08:05:33;;;;;;;11.98;5.30;;;;;;;21.46;38.21;102507.09;6188013;23;19997;-79
2022/05/09 08:07:58;;;;;;;8.63;4.60;;;;;;;21.71;36.54;102508.28;6213846;23;19993;-80
2022/05/09 08:10:23;;;;;;;16.00;5.22;;;;;;;21.79;37.64;102511.09;6192153;23;20008;-81
2022/05/09 08:12:49;;;;;;;11.25;5.10;;;;;;;22.02;36.70;102507.97;6190804;23;20001;-80
2022/05/09 08:15:17;;;;;;;14.07;4.88;;;;;;;22.12;35.20;102506.06;6191516;23;20072;-78
2022/05/09 08:17:45;;;;;;;9.70;4.72;;;;;;;22.17;35.83;102509.16;6190479;23;20008;-78
2022/05/09 08:20:12;;;;;;;13.13;4.67;;;;;;;22.39;34.33;102508.88;6187940;23;20382;-78
2022/05/09 08:22:37;;;;;;;11.10;4.60;;;;;;;22.77;35.52;102509.53;6187792;23;20005;-76
2022/05/09 08:25:05;;;;;;;8.60;4.60;;;;;;;22.76;34.39;102508.69;6188960;23;20036;-76
2022/05/09 08:27:30;;;;;;;13.88;4.70;;;;;;;23.25;33.86;102502.78;6189697;23;20243;-76
2022/05/09 08:29:56;;;;;;;13.10;4.82;;;;;;;23.45;33.63;102508.81;6189986;23;20009;-76
2022/05/09 08:32:26;;;;;;;9.95;4.68;;;;;;;23.83;33.93;102502.03;6188415;23;20036;-76
2022/05/09 08:34:51;;;;;;;12.48;4.55;;;;;;;23.95;31.81;102501.72;6187502;23;20036;-76
2022/05/09 08:37:20;;;;;;;19.67;5.43;;;;;;;24.02;33.30;102500.03;6187477;23;20009;-76
2022/05/09 08:39:46;;;;;;;13.13;4.40;;;;;;;24.44;32.56;102506.38;6187524;23;20009;-76
2022/05/09 08:42:30;;;;;;;15.80;5.15;;;;;;;24.72;33.68;102509.63;6186820;23;20012;-77
2022/05/09 08:45:01;;;;;;;10.52;3.70;;;;;;;24.85;32.02;102498.25;6188006;23;20056;-78
2022/05/09 08:48:01;;;;;;;9.43;3.58;;;;;;;25.15;30.65;102493.06;6187658;23;20012;-78
2022/05/09 08:50:54;;;;;;;11.57;4.25;;;;;;;25.38;32.95;102499.50;6117517;23;20012;-78
2022/05/09 08:53:23;;;;;;;13.88;4.18;;;;;;;25.28;29.79;102493.38;6161950;23;20001;-78
2022/05/09 08:55:51;;;;;;;9.18;4.10;;;;;;;25.60;30.53;102489.69;6186109;23;20028;-76
2022/05/09 08:58:49;;;;;;;14.32;4.55;;;;;;;25.60;30.61;102497.03;6186360;23;20777;-77
2022/05/09 09:01:22;;;;;;;10.85;4.05;;;;;;;25.88;29.90;102496.50;6201529;23;20012;-78
2022/05/09 09:03:58;;;;;;;10.63;3.78;;;;;;;26.02;30.37;102490.34;6177455;23;20061;-78
2022/05/09 09:06:53;;;;;;;15.13;3.90;;;;;;;26.46;30.28;102480.66;6205350;23;20001;-78
2022/05/09 09:09:38;;;;;;;9.57;4.07;;;;;;;26.54;29.79;102478.69;6173129;23;20019;-77
2022/05/09 09:12:24;;;;;;;12.73;4.05;;;;;;;26.46;28.29;102476.03;6206257;23;20013;-78
2022/05/09 09:15:09;;;;;;;13.48;4.22;;;;;;;26.78;30.33;102476.81;6183570;23;20005;-80
2022/05/09 09:18:04;;;;;;;8.23;4.00;;;;;;;27.03;28.92;102468.34;6212454;23;20472;-79
2022/05/09 09:20:33;;;;;;;12.35;4.40;;;;;;;27.06;28.04;102466.13;6208912;23;20021;-78
2022/05/09 09:23:29;;;;;;;9.10;3.70;;;;;;;27.41;29.52;102468.28;6210671;23;20009;-80
2022/05/09 09:26:10;;;;;;;9.10;4.20;;;;;;;27.52;27.75;102462.31;6209797;23;20065;-80
2022/05/09 09:28:49;;;;;;;11.98;4.43;;;;;;;27.74;27.13;102465.09;6187144;23;20011;-80
2022/05/09 09:31:43;;;;;;;11.65;4.10;;;;;;;28.00;28.33;102459.97;6211754;23;20016;-81
2022/05/09 09:34:26;;;;;;;9.63;4.35;;;;;;;28.09;28.36;102468.03;6212149;23;19989;-81
2022/05/09 09:37:13;;;;;;;11.43;4.35;;;;;;;28.26;27.91;102466.69;6184261;23;20004;-82
2022/05/09 09:39:39;;;;;;;11.98;4.97;;;;;;;28.41;25.61;102462.03;6212474;23;19989;-79
2022/05/09 09:42:04;;;;;;;16.05;4.65;;;;;;;28.68;25.53;102456.78;6187828;23;19997;-79
2022/05/09 09:44:31;;;;;;;13.95;4.97;;;;;;;28.54;25.08;102454.97;6213348;23;19997;-79
2022/05/09 09:47:24;;;;;;;12.95;4.53;;;;;;;28.55;26.54;102460.22;6185279;23;20005;-79
2022/05/09 09:50:29;;;;;;;14.07;4.80;;;;;;;28.65;24.63;102454.44;6190835;23;20032;-81
2022/05/09 09:52:57;;;;;;;12.73;4.15;;;;;;;28.52;24.77;102455.16;6090263;23;20011;-81
2022/05/09 09:55:33;;;;;;;10.05;3.75;;;;;;;28.90;25.90;102445.78;6066758;23;20018;-81
2022/05/09 09:58:19;;;;;;;15.57;4.65;;;;;;;29.29;26.40;102442.41;6131283;23;20009;-82
2022/05/09 10:00:45;;;;;;;12.45;4.60;;;;;;;29.30;25.11;102440.56;6184475;23;20001;-82
2022/05/09 10:03:29;;;;;;;11.82;4.30;;;;;;;29.39;26.67;102428.34;6184987;23;19989;-80
2022/05/09 10:05:56;;;;;;;9.93;3.75;;;;;;;29.31;24.57;102423.94;6185587;23;20000;-81
2022/05/09 10:08:21;;;;;;;9.82;3.38;;;;;;;29.25;23.06;102427.47;6209838;23;20077;-81
2022/05/09 10:11:03;;;;;;;11.70;3.07;;;;;;;29.40;24.29;102426.47;6184112;23;20009;-81
2022/05/09 10:13:43;;;;;;;8.48;3.17;;;;;;;29.21;22.62;102423.47;6182690;23;20001;-80
2022/05/09 10:16:33;;;;;;;11.45;2.90;;;;;;;29.41;24.07;102420.81;6184454;23;20020;-81
2022/05/09 10:19:06;;;;;;;8.40;3.03;;;;;;;29.16;23.62;102418.56;6162944;23;20013;-81
2022/05/09 10:27:25;;;;;;;7.72;3.03;;;;;;;29.37;22.04;102410.47;6194221;23;20075;-79
2022/05/09 10:29:58;;;;;;;8.85;3.33;;;;;;;29.44;22.10;102406.69;6195242;23;20006;-81
2022/05/09 10:32:47;;;;;;;8.13;3.13;;;;;;;30.11;24.35;102403.25;6208639;23;20009;-79
2022/05/09 10:35:43;;;;;;;7.47;3.15;;;;;;;30.37;23.50;102400.53;6213232;23;19989;-80
2022/05/09 10:38:17;;;;;;;9.02;3.15;;;;;;;30.16;22.02;102397.97;6212046;23;20000;-81
2022/05/09 10:41:03;;;;;;;10.95;3.25;;;;;;;30.35;23.18;102396.28;6213413;23;20052;-82
2022/05/09 10:43:42;;;;;;;7.63;3.30;;;;;;;30.76;22.39;102390.56;6213414;23;20013;-81
2022/05/09 10:46:13;;;;;;;13.95;3.35;;;;;;;30.63;21.22;102393.34;6213565;23;19993;-81
2022/05/09 10:48:54;;;;;;;9.10;3.00;;;;;;;31.20;23.13;102390.00;6212916;23;20001;-81
2022/05/09 10:51:35;;;;;;;12.27;4.10;;;;;;;30.99;22.25;102387.34;6212822;23;19996;-80
2022/05/09 10:54:12;;;;;;;9.55;3.58;;;;;;;31.23;23.21;102382.16;6212786;23;20009;-82
2022/05/09 10:57:05;;;;;;;12.20;3.90;;;;;;;31.42;23.19;102374.88;6212202;23;19993;-81
2022/05/09 10:59:37;;;;;;;9.13;3.17;;;;;;;31.52;21.95;102378.00;6213439;23;20075;-80
2022/05/09 11:02:18;;;;;;;8.93;3.50;;;;;;;31.42;22.02;102374.03;6212780;23;20001;-79
2022/05/09 11:04:44;;;;;;;8.80;2.72;;;;;;;31.62;22.30;102377.53;6213662;23;20009;-80
2022/05/09 11:07:09;;;;;;;7.10;3.15;;;;;;;31.45;21.72;102377.19;6214256;23;20056;-80
2022/05/09 11:09:57;;;;;;;13.57;3.43;;;;;;;31.51;21.49;102367.25;6211830;23;20005;-79
2022/05/09 11:13:00;;;;;;;9.97;4.10;;;;;;;31.79;21.76;102374.25;6211522;23;20223;-79
2022/05/09 11:15:47;;;;;;;8.27;3.58;;;;;;;31.56;22.37;102375.69;6213977;23;20216;-81
2022/05/09 11:18:49;;;;;;;10.55;3.75;;;;;;;31.61;22.36;102366.75;6214631;23;19995;-81
2022/05/09 11:21:38;;;;;;;7.68;3.38;;;;;;;31.67;22.32;102366.69;6213020;23;20064;-80
2022/05/09 11:24:37;;;;;;;9.20;3.42;;;;;;;31.72;21.79;102361.38;6215145;23;20009;-81
2022/05/09 11:27:29;;;;;;;12.75;3.67;;;;;;;31.65;22.18;102348.78;6194692;23;20047;-81
2022/05/09 11:30:30;;;;;;;11.07;3.40;;;;;;;31.39;22.78;102338.78;6210606;23;20032;-81
2022/05/09 11:33:03;;;;;;;9.40;3.40;;;;;;;31.43;21.87;102340.88;6214476;23;20012;-80
2022/05/09 11:35:36;;;;;;;10.45;3.50;;;;;;;31.63;21.73;102348.16;6214459;23;20000;-80
2022/05/09 11:38:20;;;;;;;6.97;3.55;;;;;;;31.68;21.25;102340.09;6215141;23;19989;-82
2022/05/09 11:41:13;;;;;;;12.13;3.83;;;;;;;31.32;22.07;102336.91;6214104;23;20219;-81
2022/05/09 11:43:50;;;;;;;9.95;3.60;;;;;;;31.42;22.22;102328.19;6214321;23;19995;-81
2022/05/09 11:47:03;;;;;;;7.63;3.63;;;;;;;31.80;22.66;102321.81;6214977;23;20064;-81
2022/05/09 11:49:58;;;;;;;8.25;3.75;;;;;;;31.57;22.79;102325.16;6212529;23;20056;-78
2022/05/09 11:52:39;;;;;;;10.98;4.05;;;;;;;31.49;22.09;102320.78;6214067;23;20024;-82